SLTR

Teniente Av. Jorge Henrich Arauz Airport

Trinidad, Bolivia
TAF SLTR 181030Z 1812/1912 16011KT 9999 FEW017 TX24/1820Z TN13/1910Z BECMG 1820/1824 16006KT NSC
Issued Valid From Valid To
Jun-18 @ 10:30 UTC
(3 hours ago)
Jun-18 @ 12:00 UTC
(an hour ago)
Jun-19 @ 12:00 UTC
(in 23 hours)
Jun-18 @ 12:00 to Jun-18 @ 20:00
TAF SLTR 181030Z 1812/1912 16011KT 9999 FEW017 TX24/1820Z TN13/1910Z
Wind Visibility Clouds
160° at 11 knots 10,000+ meters
  • Few at 1,700' AGL
Becoming Jun-18 @ 20:00 to Jun-19 @ 12:00
BECMG 1820/1824 16006KT NSC
Wind Visibility Clouds
160° at 6 knots 10,000+ meters
  • No significant clouds
TAF SLTR 181030Z 1812/1912 16011KT 9999 FEW017 TX24/1820Z TN13/1910Z BECMG 1820/1824 16006KT NSC
Issued Jun-18 @ 10:30 UTC
(3 hours ago)
Valid From Jun-18 @ 12:00 UTC
(an hour ago)
Valid To Jun-19 @ 12:00 UTC
(in 23 hours)
Jun-18 @ 12:00 - Jun-18 @ 20:00
Wind Visibility
160° at 11 knots 10,000+ meters
Clouds
  • Few at 1,700' AGL
Becoming Jun-18 @ 20:00 - Jun-19 @ 12:00
Wind Visibility
160° at 6 knots 10,000+ meters
Clouds
  • No significant clouds